FDMS/MTS METAR and TAF weather

Enter ICAO airport designator
Station Type Date Time Source
FDMS METAR 2021/02/22 11:00 UTC NOAA

FDMS 221100Z 18011KT 8000 -RA SCT018 BKN030 24/20 Q1020 TEMPO 6000


Station Type Date Time Source
FDMS Decoded METAR 2021/02/22 11:00 UTC NOAA

Manzini / Matsapa Airport, Swaziland (FDMS) 26-32S 031-18E
Feb 22, 2021 - 06:00 AM EST / 2021.02.22 1100 UTC
Wind: from the S (180 degrees) at 13 MPH (11 KT):0
Visibility: 4 mile(s):0
Sky conditions: mostly cloudy
Weather: light rain
Temperature: 75 F (24 C)
Dew Point: 68 F (20 C)
Relative Humidity: 78%
Pressure (altimeter): 30.12 in. Hg (1020 hPa)
ob: FDMS 221100Z 18011KT 8000 -RA SCT018 BKN030 24/20 Q1020 TEMPO 6000
cycle: 11

Station Type Date Time Source
FDMS TAF 2020/03/05 06:00 UTC NOAA

TAF TAF FDMS 050400Z 0506/0518 06007KT CAVOK

Example: see airport list